You are listening to:
KPOU Ground/Tower - Poughkeepsie, New York, United States

KPOU 210353Z AUTO 01009KT 10SM CLR M09/M17 A3043 RMK AO2 SLP304 T10891172

If stream doesn't start automatically press the play button
If stream stops then reload player then press play